Time;durP1;ratioP1;P1;durP2;ratioP2;P2;SDS_P1;SDS_P2;PMS_P1;PMS_P2;Temp;Humidity;BMP_temperature;BMP_pressure;BME280_temperature;BME280_humidity;BME280_pressure;Samples;Min_cycle;Max_cycle;Signal;HPM_P1;HPM_P2
2022/03/30 00:00:52;;;;;;;5.40;1.50;;;4.20;84.40;;;;;;5071516;28;20237;-89
2022/03/30 00:03:19;;;;;;;8.20;1.70;;;4.20;84.80;;;;;;5086295;28;20231;-89
2022/03/30 00:05:46;;;;;;;6.43;2.00;;;4.20;84.80;;;;;;5065832;28;20222;-88
2022/03/30 00:08:13;;;;;;;6.00;1.70;;;4.20;84.80;;;;;;5083676;28;20738;-87
2022/03/30 00:10:40;;;;;;;5.83;1.57;;;4.20;84.80;;;;;;5070745;28;20253;-89
2022/03/30 00:13:08;;;;;;;6.60;1.97;;;4.20;85.10;;;;;;5070312;28;20743;-88
2022/03/30 00:15:35;;;;;;;5.70;1.80;;;4.20;85.00;;;;;;5070660;28;20285;-88
2022/03/30 00:18:04;;;;;;;7.07;1.90;;;4.20;85.20;;;;;;5075883;28;20888;-88
2022/03/30 00:20:30;;;;;;;10.27;2.33;;;4.20;85.50;;;;;;5070693;28;20238;-87
2022/03/30 00:22:57;;;;;;;8.10;2.00;;;4.20;85.30;;;;;;5088164;28;20235;-88
2022/03/30 00:25:24;;;;;;;4.30;1.47;;;4.20;85.40;;;;;;5069117;28;20236;-88
2022/03/30 00:27:51;;;;;;;10.20;1.90;;;4.10;85.30;;;;;;5088879;28;20220;-89
2022/03/30 00:30:19;;;;;;;5.70;1.77;;;4.10;85.30;;;;;;5070322;28;20234;-88
2022/03/30 00:32:47;;;;;;;2.47;1.37;;;4.10;86.30;;;;;;5067083;28;20721;-87
2022/03/30 00:35:16;;;;;;;8.03;2.20;;;4.10;85.50;;;;;;5087206;28;20223;-87
2022/03/30 00:37:43;;;;;;;6.40;1.70;;;4.10;85.80;;;;;;5071049;28;20228;-88
2022/03/30 00:40:14;;;;;;;6.53;1.80;;;4.10;85.80;;;;;;5089655;28;20227;-88
2022/03/30 00:42:41;;;;;;;8.27;1.97;;;4.00;86.10;;;;;;5087166;28;20607;-89
2022/03/30 00:45:09;;;;;;;3.97;1.70;;;4.00;86.00;;;;;;5075947;28;20238;-88
2022/03/30 00:47:36;;;;;;;6.50;2.20;;;3.90;86.20;;;;;;5084081;28;20235;-88
2022/03/30 00:50:05;;;;;;;8.83;2.10;;;3.90;86.20;;;;;;5069317;28;20216;-87
2022/03/30 00:52:34;;;;;;;7.90;2.07;;;3.90;86.50;;;;;;5067328;28;20228;-87
2022/03/30 00:55:01;;;;;;;7.33;2.10;;;3.80;86.50;;;;;;5064034;28;20305;-86
2022/03/30 00:57:32;;;;;;;8.30;2.73;;;3.80;86.80;;;;;;5067123;28;20227;-86
2022/03/30 00:59:59;;;;;;;8.27;1.83;;;3.80;87.10;;;;;;5083811;28;20737;-86
2022/03/30 01:02:26;;;;;;;5.90;2.23;;;3.70;87.10;;;;;;5064196;28;20270;-86
2022/03/30 01:04:53;;;;;;;7.57;2.47;;;3.70;87.30;;;;;;5085863;28;20228;-86
2022/03/30 01:07:20;;;;;;;5.93;1.90;;;3.70;87.40;;;;;;5067061;28;20331;-87
2022/03/30 01:09:48;;;;;;;7.83;2.30;;;3.70;87.80;;;;;;5072494;28;20234;-87
2022/03/30 01:12:15;;;;;;;9.97;2.33;;;3.70;88.40;;;;;;5085160;28;20231;-86
2022/03/30 01:14:42;;;;;;;7.77;1.80;;;3.70;88.20;;;;;;5067823;28;20715;-87
2022/03/30 01:17:09;;;;;;;8.13;2.10;;;3.70;88.20;;;;;;5066581;28;20229;-86
2022/03/30 01:19:36;;;;;;;5.27;1.90;;;3.70;88.30;;;;;;5069123;28;20230;-86
2022/03/30 01:22:07;;;;;;;8.63;2.23;;;3.70;88.40;;;;;;5086948;28;20218;-87
2022/03/30 01:24:35;;;;;;;7.20;1.90;;;3.70;88.70;;;;;;5064903;28;20227;-86
2022/03/30 01:27:02;;;;;;;6.93;1.90;;;3.70;88.60;;;;;;5087288;28;20220;-85
2022/03/30 01:32:29;;;;;;;7.97;1.73;;;3.70;88.60;;;;;;5085007;28;20217;-86
2022/03/30 01:34:57;;;;;;;9.70;2.20;;;3.80;88.80;;;;;;5086622;28;20219;-87
2022/03/30 01:37:28;;;;;;;9.53;2.00;;;3.80;88.80;;;;;;5064429;28;20227;-87
2022/03/30 01:39:56;;;;;;;7.23;2.10;;;3.80;89.00;;;;;;5087346;28;20225;-86
2022/03/30 01:42:23;;;;;;;8.57;2.00;;;3.80;89.00;;;;;;5087741;28;20231;-85
2022/03/30 01:44:50;;;;;;;5.33;1.77;;;3.90;89.00;;;;;;5087879;28;20228;-86
2022/03/30 01:47:18;;;;;;;11.27;2.60;;;3.80;88.90;;;;;;5067869;28;20227;-85
2022/03/30 01:49:45;;;;;;;7.30;2.00;;;3.90;89.00;;;;;;5087536;28;20575;-87
2022/03/30 01:52:14;;;;;;;6.33;1.90;;;3.90;89.00;;;;;;5069945;28;20290;-86
2022/03/30 01:54:42;;;;;;;5.97;1.90;;;3.90;89.10;;;;;;5068534;28;20646;-86
2022/03/30 01:57:12;;;;;;;5.07;2.00;;;3.90;89.30;;;;;;5068604;28;20223;-86
2022/03/30 01:59:39;;;;;;;7.27;1.83;;;3.90;89.40;;;;;;5066918;28;20277;-88
2022/03/30 02:02:07;;;;;;;6.10;1.80;;;3.90;89.50;;;;;;5087269;28;20224;-87
2022/03/30 02:04:35;;;;;;;8.57;2.20;;;3.90;89.70;;;;;;5067360;28;20224;-86
2022/03/30 02:07:02;;;;;;;4.97;1.83;;;3.90;89.50;;;;;;5086913;28;20322;-87
2022/03/30 02:09:29;;;;;;;7.93;2.00;;;4.00;89.60;;;;;;5085948;28;20308;-85
2022/03/30 02:11:57;;;;;;;7.73;2.30;;;4.00;89.70;;;;;;5080631;28;20236;-87
2022/03/30 02:14:24;;;;;;;6.40;1.70;;;4.00;89.90;;;;;;5081836;28;20235;-87
2022/03/30 02:16:51;;;;;;;4.90;1.67;;;4.00;89.80;;;;;;5067817;28;20224;-87
2022/03/30 02:19:17;;;;;;;7.07;1.50;;;4.00;89.80;;;;;;5069822;28;20305;-87
2022/03/30 02:21:44;;;;;;;6.27;2.17;;;4.00;90.00;;;;;;5071569;28;20227;-87
2022/03/30 02:24:11;;;;;;;8.70;1.93;;;4.00;90.00;;;;;;5065904;28;20635;-88
2022/03/30 02:26:38;;;;;;;9.40;1.90;;;4.00;90.30;;;;;;5086878;28;20293;-86
2022/03/30 02:29:06;;;;;;;5.43;1.90;;;3.90;90.00;;;;;;5069099;28;20310;-86
2022/03/30 02:31:33;;;;;;;5.77;1.73;;;3.90;90.00;;;;;;5069471;28;20226;-85
2022/03/30 02:34:00;;;;;;;7.17;2.07;;;3.90;90.20;;;;;;5069170;28;20236;-85
2022/03/30 02:36:27;;;;;;;7.60;1.80;;;3.90;90.40;;;;;;5066484;28;20235;-86
2022/03/30 02:38:55;;;;;;;7.03;1.73;;;3.90;90.30;;;;;;5085483;28;20380;-85
2022/03/30 02:41:21;;;;;;;5.80;2.10;;;4.00;90.20;;;;;;5063886;28;20228;-85
2022/03/30 02:43:48;;;;;;;6.47;2.00;;;3.90;90.20;;;;;;5064514;28;20805;-85
2022/03/30 02:46:16;;;;;;;6.70;1.80;;;4.00;90.30;;;;;;5084939;28;20220;-85
2022/03/30 02:48:43;;;;;;;7.70;1.80;;;3.90;90.30;;;;;;5085103;28;20232;-85
2022/03/30 02:51:10;;;;;;;5.67;1.50;;;4.00;90.30;;;;;;5068916;28;20228;-85
2022/03/30 02:53:37;;;;;;;7.37;1.83;;;3.90;90.30;;;;;;5089018;28;20579;-86
2022/03/30 02:56:04;;;;;;;6.73;1.90;;;3.90;90.30;;;;;;5089026;28;20218;-85
2022/03/30 02:58:32;;;;;;;6.77;1.70;;;3.90;90.40;;;;;;5074725;28;20971;-85
2022/03/30 03:00:59;;;;;;;6.90;2.10;;;3.90;90.40;;;;;;5094187;28;20228;-86
2022/03/30 03:03:27;;;;;;;6.43;1.83;;;3.90;90.40;;;;;;5093827;28;20228;-85
2022/03/30 03:05:54;;;;;;;9.47;2.10;;;3.90;90.60;;;;;;5075308;28;20272;-86
2022/03/30 03:08:21;;;;;;;5.50;2.00;;;3.90;90.60;;;;;;5075102;28;20246;-85
2022/03/30 03:10:50;;;;;;;8.00;1.80;;;3.90;90.60;;;;;;5095446;28;20228;-85
2022/03/30 03:13:17;;;;;;;5.90;1.70;;;3.90;90.60;;;;;;5091678;28;20428;-84
2022/03/30 03:15:46;;;;;;;5.73;1.63;;;3.90;90.70;;;;;;5094389;28;20227;-86
2022/03/30 03:18:13;;;;;;;6.47;1.80;;;3.90;90.80;;;;;;5090391;28;20224;-87
2022/03/30 03:20:43;;;;;;;9.93;2.43;;;3.80;90.80;;;;;;5093918;28;20325;-85
2022/03/30 03:23:10;;;;;;;5.63;1.90;;;3.80;90.90;;;;;;5069969;28;20219;-85
2022/03/30 03:25:37;;;;;;;10.03;1.90;;;3.80;91.00;;;;;;5089755;28;20685;-86
2022/03/30 03:28:05;;;;;;;8.57;2.13;;;3.80;91.00;;;;;;5086105;28;20224;-86
2022/03/30 03:30:32;;;;;;;8.10;1.87;;;3.80;91.10;;;;;;5085840;28;20697;-87
2022/03/30 03:32:59;;;;;;;6.47;1.40;;;3.80;91.10;;;;;;5088404;28;20996;-85
2022/03/30 03:35:26;;;;;;;9.63;1.87;;;3.70;91.30;;;;;;5081397;28;20303;-86
2022/03/30 03:37:55;;;;;;;4.63;1.57;;;3.70;91.40;;;;;;5072297;28;20601;-85
2022/03/30 03:40:22;;;;;;;4.17;1.77;;;3.70;91.60;;;;;;5079274;28;20223;-86
2022/03/30 03:42:49;;;;;;;10.47;2.63;;;3.70;91.70;;;;;;5088629;28;20221;-84
2022/03/30 03:45:16;;;;;;;5.00;2.17;;;3.70;91.80;;;;;;5073235;28;20226;-87
2022/03/30 03:47:43;;;;;;;6.23;1.70;;;3.70;92.00;;;;;;5066477;28;20223;-86
2022/03/30 03:50:11;;;;;;;3.90;1.67;;;3.70;91.80;;;;;;5094669;28;20733;-88
2022/03/30 03:52:38;;;;;;;8.23;1.73;;;3.60;92.10;;;;;;5071568;28;20227;-89
2022/03/30 03:55:08;;;;;;;5.07;1.97;;;3.60;92.20;;;;;;5071031;28;20224;-88
2022/03/30 03:57:35;;;;;;;8.80;1.90;;;3.60;92.60;;;;;;5087852;28;20243;-87
2022/03/30 04:00:03;;;;;;;7.43;1.90;;;3.60;92.60;;;;;;5070455;28;20576;-87
2022/03/30 04:02:39;;;;;;;6.17;1.93;;;3.60;92.80;;;;;;5085340;28;20221;-88
2022/03/30 04:05:08;;;;;;;8.17;1.90;;;3.50;92.70;;;;;;5070277;28;20235;-86
2022/03/30 04:07:35;;;;;;;5.47;1.93;;;3.60;93.00;;;;;;5084896;28;20289;-86
2022/03/30 04:10:02;;;;;;;8.63;1.80;;;3.50;93.10;;;;;;5069676;28;20225;-87
2022/03/30 04:12:30;;;;;;;4.33;1.90;;;3.50;93.20;;;;;;5071916;28;20227;-87
2022/03/30 04:14:57;;;;;;;5.90;1.70;;;3.50;93.30;;;;;;5071380;28;20247;-85
2022/03/30 04:17:23;;;;;;;8.17;2.27;;;3.50;93.40;;;;;;5087087;28;20265;-85
2022/03/30 04:19:50;;;;;;;5.97;1.97;;;3.50;93.60;;;;;;5090064;28;20512;-86
2022/03/30 04:22:17;;;;;;;4.93;1.77;;;3.50;93.80;;;;;;5072148;28;20234;-85
2022/03/30 04:24:44;;;;;;;6.60;2.00;;;3.50;93.80;;;;;;5090795;28;20221;-86
2022/03/30 04:27:10;;;;;;;4.77;1.90;;;3.50;93.90;;;;;;5077299;28;20250;-86
2022/03/30 04:29:38;;;;;;;6.47;2.33;;;3.50;94.00;;;;;;5072207;28;20227;-87
2022/03/30 04:32:05;;;;;;;5.27;2.00;;;3.50;94.20;;;;;;5072323;28;20219;-83
2022/03/30 04:34:32;;;;;;;6.17;1.93;;;3.40;94.20;;;;;;5091161;28;20242;-86
2022/03/30 04:36:59;;;;;;;6.87;2.20;;;3.50;94.40;;;;;;5092550;28;20216;-84
2022/03/30 04:39:26;;;;;;;7.77;2.10;;;3.40;94.40;;;;;;5087979;28;20284;-84
2022/03/30 04:41:53;;;;;;;6.67;1.80;;;3.40;94.70;;;;;;5093536;28;20586;-84
2022/03/30 04:44:21;;;;;;;6.83;1.67;;;3.40;94.70;;;;;;5092603;28;20224;-84
2022/03/30 04:46:49;;;;;;;5.73;1.93;;;3.40;94.70;;;;;;5075712;28;20226;-80
2022/03/30 04:49:16;;;;;;;13.40;2.30;;;3.40;94.90;;;;;;5066792;28;20231;-79
2022/03/30 04:51:43;;;;;;;34.77;3.67;;;3.40;95.10;;;;;;5070763;28;20333;-79
2022/03/30 04:54:09;;;;;;;6.63;2.10;;;3.40;95.50;;;;;;5084539;28;20323;-79
2022/03/30 04:56:36;;;;;;;5.93;1.90;;;3.40;95.80;;;;;;5085095;28;20226;-79
2022/03/30 04:59:03;;;;;;;9.77;2.27;;;3.40;95.80;;;;;;5084036;28;20231;-79
2022/03/30 05:01:29;;;;;;;7.53;1.90;;;3.40;96.00;;;;;;5069751;28;20219;-79
2022/03/30 05:03:57;;;;;;;8.53;2.10;;;3.40;96.00;;;;;;5084879;28;20225;-79
2022/03/30 05:06:24;;;;;;;5.87;2.27;;;3.40;96.20;;;;;;5084921;28;20740;-79
2022/03/30 05:08:51;;;;;;;6.83;2.20;;;3.50;96.20;;;;;;5086819;28;20759;-79
2022/03/30 05:11:18;;;;;;;16.27;2.20;;;3.50;96.20;;;;;;5084492;28;20220;-78
2022/03/30 05:13:44;;;;;;;6.37;2.00;;;3.50;96.00;;;;;;5086350;28;20258;-79
2022/03/30 05:16:12;;;;;;;8.90;1.97;;;3.50;96.00;;;;;;5082982;28;20709;-79
2022/03/30 05:18:38;;;;;;;6.70;2.00;;;3.50;95.90;;;;;;5085710;28;20310;-80
2022/03/30 05:21:06;;;;;;;5.50;1.90;;;3.50;96.10;;;;;;5089271;28;20233;-81
2022/03/30 05:23:36;;;;;;;5.47;1.93;;;3.50;96.40;;;;;;5087585;28;20238;-81
2022/03/30 05:26:03;;;;;;;4.63;1.80;;;3.40;96.40;;;;;;5088949;28;20251;-80
2022/03/30 05:28:30;;;;;;;6.53;1.90;;;3.50;96.50;;;;;;5089790;28;20230;-80
2022/03/30 05:30:56;;;;;;;7.07;2.00;;;3.50;96.70;;;;;;5072898;28;20280;-80
2022/03/30 05:33:23;;;;;;;5.47;1.90;;;3.50;96.70;;;;;;5088141;28;21128;-80
2022/03/30 05:35:51;;;;;;;7.03;1.93;;;3.50;96.30;;;;;;5090883;28;20227;-81
2022/03/30 05:38:19;;;;;;;7.57;1.97;;;3.50;96.40;;;;;;5072273;28;20217;-81
2022/03/30 05:40:45;;;;;;;6.93;2.13;;;3.40;96.60;;;;;;5089426;28;20232;-80
2022/03/30 05:43:12;;;;;;;6.90;2.27;;;3.40;96.70;;;;;;5089797;28;20286;-81
2022/03/30 05:45:39;;;;;;;4.73;1.80;;;3.40;97.00;;;;;;5089093;28;20362;-80
2022/03/30 05:48:05;;;;;;;5.80;1.83;;;3.40;97.10;;;;;;5070019;28;20231;-81
2022/03/30 05:50:32;;;;;;;6.07;1.90;;;3.40;96.80;;;;;;5086019;28;20236;-81
2022/03/30 05:52:59;;;;;;;3.97;1.70;;;3.40;96.80;;;;;;5090643;28;20220;-81
2022/03/30 05:55:29;;;;;;;7.27;1.90;;;3.40;96.70;;;;;;5090891;28;20236;-81
2022/03/30 05:57:55;;;;;;;7.67;2.07;;;3.40;96.80;;;;;;5090184;28;20256;-81
2022/03/30 06:00:23;;;;;;;7.83;1.67;;;3.40;96.70;;;;;;5089171;28;20781;-80
2022/03/30 06:02:49;;;;;;;6.60;1.93;;;3.40;96.90;;;;;;5089668;28;20215;-82
2022/03/30 06:05:16;;;;;;;9.07;2.03;;;3.40;97.10;;;;;;5090027;28;20330;-80
2022/03/30 06:07:44;;;;;;;5.60;2.03;;;3.40;97.30;;;;;;5090169;28;20284;-81
2022/03/30 06:10:11;;;;;;;8.13;2.53;;;3.50;97.50;;;;;;5073195;28;20650;-81
2022/03/30 06:12:39;;;;;;;6.80;1.83;;;3.50;97.50;;;;;;5090376;28;20224;-81
2022/03/30 06:15:07;;;;;;;7.13;1.90;;;3.50;97.30;;;;;;5089111;28;20216;-81
2022/03/30 06:17:34;;;;;;;6.53;1.90;;;3.50;97.20;;;;;;5074642;28;20224;-81
2022/03/30 06:20:03;;;;;;;8.13;2.13;;;3.50;97.10;;;;;;5070594;28;20236;-81
2022/03/30 06:22:30;;;;;;;8.70;2.00;;;3.60;97.40;;;;;;5090245;28;20223;-81
2022/03/30 06:24:59;;;;;;;7.43;2.17;;;3.60;97.30;;;;;;5072416;28;20267;-81
2022/03/30 06:27:26;;;;;;;4.13;1.80;;;3.60;97.40;;;;;;5090028;28;20239;-82
2022/03/30 06:29:54;;;;;;;5.97;2.10;;;3.60;97.70;;;;;;5071068;28;20224;-81
2022/03/30 06:32:20;;;;;;;6.50;2.20;;;3.70;97.70;;;;;;5090042;28;20235;-80
2022/03/30 06:34:47;;;;;;;6.20;2.43;;;3.70;97.40;;;;;;5094995;28;20238;-81
2022/03/30 06:37:14;;;;;;;5.80;2.07;;;3.80;97.50;;;;;;5093695;28;20229;-81
2022/03/30 06:39:40;;;;;;;7.93;2.60;;;3.80;97.60;;;;;;5094724;28;20226;-80
2022/03/30 06:42:07;;;;;;;5.47;2.10;;;3.80;97.70;;;;;;5093367;28;20222;-80
2022/03/30 06:44:34;;;;;;;8.07;1.97;;;3.80;97.60;;;;;;5093886;28;20234;-81
2022/03/30 06:47:03;;;;;;;4.70;2.10;;;3.90;97.70;;;;;;5094116;28;20310;-81
2022/03/30 06:49:29;;;;;;;4.57;1.93;;;3.90;97.90;;;;;;5093821;28;20238;-80
2022/03/30 06:51:56;;;;;;;6.97;2.17;;;3.90;97.90;;;;;;5094078;28;20244;-81
2022/03/30 06:54:23;;;;;;;6.43;2.30;;;4.00;97.90;;;;;;5093130;28;20305;-80
2022/03/30 06:56:49;;;;;;;5.70;2.20;;;4.00;97.70;;;;;;5093914;28;20232;-80
2022/03/30 06:59:18;;;;;;;7.60;2.43;;;4.10;97.90;;;;;;5089973;28;20225;-80
2022/03/30 07:01:45;;;;;;;7.03;2.37;;;4.10;97.90;;;;;;5095137;28;20252;-80
2022/03/30 07:04:13;;;;;;;3.30;1.80;;;4.20;97.80;;;;;;5094389;28;20280;-80
2022/03/30 07:10:15;;;;;;;5.33;1.87;;;4.20;98.00;;;;;;5094283;28;20277;-80
2022/03/30 07:12:12;;;;;;;7.63;1.93;;;4.30;97.70;;;;;;5096116;28;20219;-80
2022/03/30 07:14:38;;;;;;;5.73;2.10;;;4.40;97.60;;;;;;5093079;28;20228;-81
2022/03/30 07:17:05;;;;;;;5.67;2.17;;;4.40;97.50;;;;;;5089568;28;20223;-80
2022/03/30 07:19:34;;;;;;;6.00;2.10;;;4.40;97.30;;;;;;5091404;28;20243;-81
2022/03/30 07:22:00;;;;;;;5.70;1.90;;;4.40;97.50;;;;;;5092518;28;20319;-80
2022/03/30 07:24:27;;;;;;;4.70;2.00;;;4.40;97.50;;;;;;5089951;28;20240;-79
2022/03/30 07:26:54;;;;;;;4.13;1.80;;;4.40;97.20;;;;;;5091233;28;20215;-81
2022/03/30 07:29:21;;;;;;;3.63;1.77;;;4.40;97.20;;;;;;5088557;28;20723;-83
2022/03/30 07:31:48;;;;;;;5.80;1.57;;;4.40;97.50;;;;;;5091745;28;20637;-82
2022/03/30 07:34:15;;;;;;;4.33;1.50;;;4.40;97.60;;;;;;5072316;28;20224;-83
2022/03/30 07:36:43;;;;;;;5.23;1.40;;;4.40;97.30;;;;;;5091354;28;20220;-83
2022/03/30 07:39:09;;;;;;;6.73;1.60;;;4.50;97.40;;;;;;5071721;28;20217;-83
2022/03/30 07:41:36;;;;;;;4.80;1.43;;;4.50;97.50;;;;;;5090863;28;20231;-83
2022/03/30 07:44:05;;;;;;;3.03;1.33;;;4.60;97.60;;;;;;5072584;28;20223;-83
2022/03/30 07:46:32;;;;;;;5.07;1.40;;;4.60;98.30;;;;;;5072733;28;20231;-83
2022/03/30 07:48:59;;;;;;;4.47;1.80;;;4.80;98.40;;;;;;5087188;28;20705;-83
2022/03/30 07:51:26;;;;;;;14.47;6.27;;;4.90;98.40;;;;;;5088124;28;20335;-83
2022/03/30 07:53:54;;;;;;;17.90;9.23;;;4.90;98.10;;;;;;5091547;28;20229;-83
2022/03/30 07:56:21;;;;;;;11.40;5.07;;;4.90;97.30;;;;;;5073121;28;20231;-82
2022/03/30 07:58:48;;;;;;;6.47;3.40;;;5.00;97.10;;;;;;5091190;28;20340;-82
2022/03/30 08:01:16;;;;;;;4.80;2.20;;;5.00;97.80;;;;;;5090437;28;20224;-82
2022/03/30 08:03:44;;;;;;;3.40;1.70;;;5.00;98.30;;;;;;5090435;28;20224;-83
2022/03/30 08:06:12;;;;;;;4.20;1.50;;;5.10;98.30;;;;;;5086767;28;20227;-82
2022/03/30 08:08:38;;;;;;;4.23;1.90;;;5.10;98.20;;;;;;5091597;28;20235;-83
2022/03/30 08:11:07;;;;;;;4.57;1.50;;;5.20;98.20;;;;;;5072220;28;20224;-82
2022/03/30 08:13:33;;;;;;;7.70;1.73;;;5.30;98.40;;;;;;5071093;28;20273;-82
2022/03/30 08:16:00;;;;;;;2.90;1.20;;;5.30;98.10;;;;;;5089644;28;20547;-83
2022/03/30 08:18:27;;;;;;;4.97;1.40;;;5.40;98.20;;;;;;5070257;28;20253;-82
2022/03/30 08:23:38;;;;;;;3.57;1.40;;;5.50;97.70;;;;;;5090077;28;20317;-82
2022/03/30 08:26:06;;;;;;;4.20;1.57;;;5.50;97.00;;;;;;5089662;28;20239;-82
2022/03/30 08:28:33;;;;;;;4.57;2.07;;;5.60;97.00;;;;;;5090023;28;20243;-83
2022/03/30 08:30:59;;;;;;;6.07;2.03;;;5.60;96.90;;;;;;5089929;28;20234;-82
2022/03/30 08:33:27;;;;;;;5.10;1.90;;;5.60;97.30;;;;;;5072776;28;20319;-82
2022/03/30 08:35:54;;;;;;;2.63;1.33;;;5.70;97.70;;;;;;5090239;28;20226;-82
2022/03/30 08:38:20;;;;;;;4.03;1.80;;;5.70;97.60;;;;;;5089684;28;20224;-82
2022/03/30 08:40:48;;;;;;;4.83;1.80;;;5.80;97.80;;;;;;5085600;28;20343;-81
2022/03/30 08:43:16;;;;;;;3.33;1.30;;;5.90;98.00;;;;;;5088755;28;20226;-80
2022/03/30 08:45:42;;;;;;;3.43;1.50;;;6.00;98.00;;;;;;5085901;28;20869;-81
2022/03/30 08:48:10;;;;;;;3.73;1.40;;;6.10;98.00;;;;;;5084331;28;20260;-80
2022/03/30 08:50:37;;;;;;;5.03;1.63;;;6.20;97.70;;;;;;5084298;28;20643;-80
2022/03/30 08:53:07;;;;;;;4.37;1.57;;;6.20;97.30;;;;;;5067200;28;20801;-80
2022/03/30 08:55:34;;;;;;;5.43;1.63;;;6.20;97.30;;;;;;5087967;28;20244;-80
2022/03/30 08:58:01;;;;;;;5.70;1.57;;;6.30;97.30;;;;;;5069705;28;20231;-81
2022/03/30 09:00:33;;;;;;;4.03;1.40;;;6.30;97.50;;;;;;5071266;28;20234;-80
2022/03/30 09:03:01;;;;;;;3.77;1.70;;;6.30;96.80;;;;;;5081482;28;20249;-81
2022/03/30 09:05:29;;;;;;;4.30;2.00;;;6.30;96.30;;;;;;5071122;28;20311;-80
2022/03/30 09:08:08;;;;;;;4.00;1.70;;;6.20;96.40;;;;;;5090183;28;20678;-80
2022/03/30 09:10:36;;;;;;;4.30;1.53;;;6.20;96.10;;;;;;5089171;28;20307;-80
2022/03/30 09:13:05;;;;;;;4.43;1.80;;;6.20;96.30;;;;;;5088765;28;20248;-81
2022/03/30 09:15:34;;;;;;;5.27;2.87;;;6.10;97.00;;;;;;5088926;28;20239;-80
2022/03/30 09:18:03;;;;;;;8.53;5.50;;;6.10;97.50;;;;;;5088854;28;20613;-80
2022/03/30 09:20:30;;;;;;;9.83;7.37;;;6.20;97.40;;;;;;5089372;28;20265;-80
2022/03/30 09:22:58;;;;;;;8.97;6.13;;;6.20;97.40;;;;;;5089090;28;20373;-80
2022/03/30 09:25:26;;;;;;;4.97;3.10;;;6.30;97.60;;;;;;5088930;28;20232;-80
2022/03/30 09:27:54;;;;;;;4.23;2.80;;;6.40;96.90;;;;;;5088719;28;20250;-81
2022/03/30 09:30:22;;;;;;;5.70;2.63;;;6.40;96.50;;;;;;5088679;28;20240;-81
2022/03/30 09:32:52;;;;;;;2.83;1.67;;;6.50;96.90;;;;;;5086829;28;21506;-81
2022/03/30 09:35:24;;;;;;;2.67;1.57;;;6.60;96.80;;;;;;5071247;28;20225;-80
2022/03/30 09:38:08;;;;;;;3.37;1.70;;;6.60;96.20;;;;;;5088899;28;20220;-81
2022/03/30 09:40:47;;;;;;;3.53;1.77;;;6.60;96.20;;;;;;5069137;28;20221;-80
2022/03/30 09:43:22;;;;;;;2.80;1.23;;;6.60;96.90;;;;;;5069235;28;20220;-80
2022/03/30 09:45:51;;;;;;;5.53;1.57;;;6.60;96.20;;;;;;5088298;28;20224;-80
2022/03/30 09:48:25;;;;;;;4.03;1.40;;;6.70;96.20;;;;;;5086946;28;20752;-80
2022/03/30 09:50:54;;;;;;;3.63;1.30;;;6.70;96.70;;;;;;5069593;28;20236;-80
2022/03/30 09:53:23;;;;;;;5.37;1.40;;;6.80;96.50;;;;;;5084551;28;20740;-80
2022/03/30 09:55:59;;;;;;;3.17;1.77;;;6.80;95.90;;;;;;5070585;28;20299;-83
2022/03/30 09:58:28;;;;;;;2.90;1.50;;;6.80;95.20;;;;;;5086872;28;20232;-83
2022/03/30 10:01:10;;;;;;;3.13;1.10;;;6.80;94.90;;;;;;5088553;28;20784;-80
2022/03/30 10:03:42;;;;;;;3.20;1.40;;;6.80;94.50;;;;;;5068487;28;20238;-80
2022/03/30 10:06:10;;;;;;;5.33;1.30;;;6.80;95.00;;;;;;5087041;28;20229;-80
2022/03/30 10:08:37;;;;;;;2.80;1.20;;;6.80;95.30;;;;;;5090757;28;20229;-80
2022/03/30 10:11:04;;;;;;;3.03;1.17;;;6.80;94.90;;;;;;5091246;28;20220;-80
2022/03/30 10:13:31;;;;;;;1.83;1.40;;;6.80;94.80;;;;;;5090231;28;20241;-80
2022/03/30 10:15:59;;;;;;;3.13;1.40;;;6.90;95.70;;;;;;5083587;28;20296;-80
2022/03/30 10:18:25;;;;;;;3.73;1.30;;;6.90;96.20;;;;;;5072239;28;20242;-80
2022/03/30 10:21:07;;;;;;;3.60;1.40;;;7.00;96.60;;;;;;5091975;28;20237;-80
2022/03/30 10:23:46;;;;;;;3.13;1.53;;;7.10;95.70;;;;;;5086202;28;20224;-81
2022/03/30 10:26:26;;;;;;;4.10;1.60;;;7.20;96.80;;;;;;5084162;28;20677;-80
2022/03/30 10:28:59;;;;;;;2.23;1.10;;;7.40;97.50;;;;;;5090964;28;20573;-80
2022/03/30 10:31:28;;;;;;;2.40;1.20;;;7.60;96.60;;;;;;5076634;28;20244;-81
2022/03/30 10:33:55;;;;;;;3.37;1.30;;;7.70;96.10;;;;;;5091282;28;20226;-81
2022/03/30 10:36:26;;;;;;;2.60;1.10;;;7.90;95.40;;;;;;5073894;28;20226;-81
2022/03/30 10:39:26;;;;;;;2.07;1.23;;;8.10;95.80;;;;;;5091117;28;20221;-82
2022/03/30 10:41:56;;;;;;;2.10;1.00;;;8.20;96.60;;;;;;5092910;28;20229;-81
2022/03/30 10:44:51;;;;;;;2.10;1.00;;;8.30;96.10;;;;;;5091477;28;20279;-81
2022/03/30 10:47:20;;;;;;;3.57;1.00;;;8.50;95.00;;;;;;5047052;28;20226;-78
2022/03/30 10:49:50;;;;;;;4.27;1.03;;;8.60;95.10;;;;;;5090774;28;20278;-79
2022/03/30 10:52:43;;;;;;;3.93;1.90;;;8.70;94.60;;;;;;5090755;28;20253;-79
2022/03/30 10:55:36;;;;;;;2.63;1.10;;;8.80;94.20;;;;;;5059627;28;20219;-79
2022/03/30 10:58:05;;;;;;;2.07;0.90;;;8.90;94.90;;;;;;5091101;28;20221;-80
2022/03/30 11:00:36;;;;;;;1.33;1.00;;;9.00;93.80;;;;;;5092461;28;20236;-80
2022/03/30 11:03:14;;;;;;;2.40;1.43;;;9.00;93.20;;;;;;5092599;28;20623;-79
2022/03/30 11:05:44;;;;;;;1.83;1.37;;;9.00;92.60;;;;;;5074687;28;20301;-80
2022/03/30 11:08:46;;;;;;;0.97;0.90;;;9.00;93.20;;;;;;5093230;28;20264;-80
2022/03/30 11:11:24;;;;;;;2.57;1.10;;;9.00;94.50;;;;;;5092462;28;20226;-80
2022/03/30 11:14:28;;;;;;;1.57;0.90;;;9.10;94.60;;;;;;5072001;28;20272;-80
2022/03/30 11:16:56;;;;;;;1.00;0.80;;;9.20;94.00;;;;;;5092734;28;20226;-80
2022/03/30 11:19:29;;;;;;;1.60;0.97;;;9.30;93.80;;;;;;5090339;28;20245;-79
2022/03/30 11:22:08;;;;;;;2.93;1.13;;;9.40;93.70;;;;;;5093267;28;20224;-80
2022/03/30 11:24:34;;;;;;;1.73;0.93;;;9.50;93.90;;;;;;5073795;28;20225;-80
2022/03/30 11:27:22;;;;;;;1.57;0.97;;;9.60;93.90;;;;;;5093355;28;21967;-80
2022/03/30 11:30:16;;;;;;;2.50;1.20;;;9.70;93.10;;;;;;5091308;28;20234;-80
2022/03/30 11:32:59;;;;;;;1.63;0.90;;;9.80;93.10;;;;;;5090744;28;20230;-80
2022/03/30 11:35:39;;;;;;;1.67;1.00;;;9.80;92.40;;;;;;5086465;28;20227;-80
2022/03/30 11:38:21;;;;;;;1.80;0.80;;;9.80;92.50;;;;;;5090086;28;20225;-79
2022/03/30 11:40:49;;;;;;;1.30;0.97;;;9.80;91.90;;;;;;5092394;28;20302;-81
2022/03/30 11:43:18;;;;;;;2.70;0.97;;;9.70;91.20;;;;;;5091540;28;20294;-81
2022/03/30 11:45:47;;;;;;;2.83;1.10;;;9.60;91.60;;;;;;5091268;28;20226;-81
2022/03/30 11:48:15;;;;;;;1.30;1.10;;;9.50;91.70;;;;;;5086250;28;20225;-81
2022/03/30 11:50:44;;;;;;;3.07;1.20;;;9.50;91.60;;;;;;5095056;28;20286;-81
2022/03/30 11:53:12;;;;;;;1.90;1.50;;;9.50;92.20;;;;;;5093021;28;20234;-81
2022/03/30 11:55:50;;;;;;;2.63;1.20;;;9.50;92.20;;;;;;5094058;28;20720;-81
2022/03/30 11:58:25;;;;;;;2.97;1.30;;;9.50;91.70;;;;;;5091733;28;20728;-81
2022/03/30 12:00:54;;;;;;;2.50;1.60;;;9.50;91.10;;;;;;5074665;28;20815;-81
2022/03/30 12:03:21;;;;;;;2.27;1.30;;;9.50;90.90;;;;;;5087651;28;20716;-81
2022/03/30 12:05:51;;;;;;;2.63;1.17;;;9.40;91.20;;;;;;5094034;28;20229;-81
2022/03/30 12:08:19;;;;;;;1.77;1.10;;;9.40;90.70;;;;;;5093616;28;20221;-81
2022/03/30 12:10:48;;;;;;;1.80;1.47;;;9.30;90.00;;;;;;5076829;28;20237;-82
2022/03/30 12:13:21;;;;;;;3.03;1.20;;;9.30;89.80;;;;;;5094336;28;20589;-81
2022/03/30 12:15:48;;;;;;;3.00;1.30;;;9.20;89.60;;;;;;5092846;28;20852;-81
2022/03/30 12:18:16;;;;;;;2.30;1.30;;;9.10;90.20;;;;;;5092951;28;20324;-81
2022/03/30 12:20:42;;;;;;;3.73;1.40;;;9.10;90.10;;;;;;5093995;28;20312;-82
2022/03/30 12:23:10;;;;;;;1.87;1.47;;;9.10;90.40;;;;;;5092499;28;20612;-82
2022/03/30 12:25:39;;;;;;;1.83;1.00;;;9.20;90.90;;;;;;5093770;28;20290;-82
2022/03/30 12:28:07;;;;;;;1.93;1.20;;;9.30;90.00;;;;;;5075148;28;20256;-81
2022/03/30 12:30:35;;;;;;;3.43;1.80;;;9.30;90.10;;;;;;5072927;28;20669;-81
2022/03/30 12:33:03;;;;;;;1.23;0.90;;;9.40;90.00;;;;;;5096249;28;20324;-82
2022/03/30 12:35:34;;;;;;;2.27;1.27;;;9.50;90.40;;;;;;5094141;28;20260;-82
2022/03/30 12:38:08;;;;;;;1.33;1.00;;;9.50;89.40;;;;;;5093168;28;20786;-82
2022/03/30 12:40:37;;;;;;;3.27;1.37;;;9.60;88.90;;;;;;5075811;28;20249;-81
2022/03/30 12:43:04;;;;;;;2.17;1.20;;;9.70;88.90;;;;;;5075453;28;20371;-82
2022/03/30 12:45:32;;;;;;;1.77;1.40;;;9.70;87.40;;;;;;5093017;28;20249;-81
2022/03/30 12:48:01;;;;;;;3.63;1.53;;;9.80;88.40;;;;;;5092170;28;20223;-82
2022/03/30 12:50:33;;;;;;;1.43;1.10;;;9.90;88.10;;;;;;5074380;28;20879;-82
2022/03/30 12:53:14;;;;;;;3.93;1.53;;;9.90;87.40;;;;;;5089377;28;20226;-82
2022/03/30 12:55:44;;;;;;;2.70;1.30;;;10.00;88.30;;;;;;5088909;28;20240;-82
2022/03/30 12:58:13;;;;;;;1.47;1.03;;;10.10;87.50;;;;;;5086615;28;20316;-82
2022/03/30 13:00:41;;;;;;;2.87;1.27;;;10.20;85.50;;;;;;5071749;28;20594;-82
2022/03/30 13:03:11;;;;;;;2.07;1.10;;;10.20;84.70;;;;;;5092036;28;20309;-82
2022/03/30 13:05:41;;;;;;;2.57;1.10;;;10.20;84.80;;;;;;5075867;28;20222;-82
2022/03/30 13:08:14;;;;;;;1.40;1.20;;;10.20;84.90;;;;;;5094682;28;20226;-82
2022/03/30 13:10:55;;;;;;;1.53;0.87;;;10.30;83.80;;;;;;5089958;28;20714;-82
2022/03/30 13:13:26;;;;;;;2.13;1.17;;;10.20;82.60;;;;;;5070397;28;20233;-83